createdAt,value
2018-12-26T00:00:58.305Z,28.40
2018-12-26T00:01:59.412Z,28.26
2018-12-26T00:03:00.522Z,28.33
2018-12-26T00:04:01.628Z,28.40
2018-12-26T00:05:02.942Z,28.51
2018-12-26T00:07:18.252Z,28.37
2018-12-26T00:08:19.366Z,28.40
2018-12-26T00:09:20.476Z,28.39
2018-12-26T00:10:21.584Z,28.42
2018-12-26T00:11:22.820Z,28.44
2018-12-26T00:12:23.933Z,28.34
2018-12-26T00:13:25.048Z,28.29
2018-12-26T00:14:26.160Z,28.39
2018-12-26T00:15:27.274Z,28.47
2018-12-26T00:16:28.393Z,28.46
2018-12-26T00:17:29.502Z,28.45
2018-12-26T00:18:30.715Z,28.40
2018-12-26T00:19:31.856Z,28.47
2018-12-26T00:20:33.029Z,28.48
2018-12-26T00:21:34.149Z,28.50
2018-12-26T00:22:35.351Z,28.43
2018-12-26T00:23:36.456Z,28.44
2018-12-26T00:24:37.568Z,28.32
2018-12-26T00:25:38.772Z,28.40
2018-12-26T00:26:39.902Z,28.48
2018-12-26T00:27:41.108Z,28.52
2018-12-26T00:28:42.212Z,28.40
2018-12-26T00:29:43.324Z,28.43
2018-12-26T00:30:44.437Z,28.38
2018-12-26T00:31:45.652Z,28.34
2018-12-26T00:32:46.856Z,28.35
2018-12-26T00:33:47.966Z,28.39
2018-12-26T00:34:49.077Z,28.48
2018-12-26T00:35:50.183Z,28.50
2018-12-26T00:38:05.520Z,28.54
2018-12-26T00:39:06.636Z,28.55
2018-12-26T00:40:07.750Z,28.52
2018-12-26T00:41:08.861Z,28.47
2018-12-26T00:43:24.281Z,28.39
2018-12-26T00:44:25.398Z,28.30
2018-12-26T00:45:26.616Z,28.34
2018-12-26T00:46:27.720Z,28.43
2018-12-26T00:48:43.037Z,28.37
2018-12-26T00:49:44.155Z,28.30
2018-12-26T00:50:45.268Z,28.23
2018-12-26T00:51:46.376Z,28.33
2018-12-26T00:54:01.793Z,28.28
2018-12-26T00:55:38.462Z,28.33
2018-12-26T00:56:39.683Z,28.31
2018-12-26T00:57:40.905Z,28.26
2018-12-26T00:58:42.028Z,28.30
2018-12-26T00:59:43.136Z,28.32
2018-12-26T01:00:44.247Z,28.30
2018-12-26T01:01:45.355Z,28.27
2018-12-26T01:02:46.563Z,28.30
2018-12-26T01:03:47.891Z,28.32
2018-12-26T01:04:49.095Z,28.33
2018-12-26T01:05:50.305Z,28.20
2018-12-26T01:06:51.413Z,28.24
2018-12-26T01:07:52.515Z,28.22
2018-12-26T01:08:53.736Z,28.25
2018-12-26T01:09:54.840Z,28.23
2018-12-26T01:10:55.965Z,28.32
2018-12-26T01:11:57.072Z,28.25
2018-12-26T01:12:58.181Z,28.38
2018-12-26T01:13:59.305Z,28.36
2018-12-26T01:15:00.426Z,28.31
2018-12-26T01:16:01.641Z,28.19
2018-12-26T01:17:02.776Z,28.33
2018-12-26T01:18:03.877Z,28.33
2018-12-26T01:19:04.998Z,28.32
2018-12-26T01:20:06.114Z,28.12
2018-12-26T01:21:07.215Z,28.16
2018-12-26T01:22:08.325Z,28.13
2018-12-26T01:23:09.432Z,28.27
2018-12-26T01:24:10.558Z,28.23
2018-12-26T01:25:11.669Z,28.32
2018-12-26T01:26:19.101Z,28.22
2018-12-26T01:27:16.080Z,28.28
2018-12-26T01:28:17.202Z,28.27
2018-12-26T01:29:18.328Z,28.30
2018-12-26T01:30:19.440Z,28.27
2018-12-26T01:31:20.548Z,28.31
2018-12-26T01:32:21.658Z,28.28
2018-12-26T01:33:22.762Z,28.29
2018-12-26T01:35:38.180Z,28.18
2018-12-26T01:36:39.293Z,28.16
2018-12-26T01:37:40.504Z,28.21
2018-12-26T01:38:41.612Z,28.27
2018-12-26T01:40:57.037Z,28.34
2018-12-26T01:41:58.250Z,28.26
2018-12-26T01:42:59.362Z,28.16
2018-12-26T01:44:00.572Z,28.16
2018-12-26T01:45:01.796Z,28.23
2018-12-26T01:46:03.003Z,28.15
2018-12-26T01:47:04.119Z,28.05
2018-12-26T01:48:05.232Z,28.00
2018-12-26T01:49:06.339Z,27.95
2018-12-26T01:51:21.647Z,28.00
2018-12-26T01:52:22.752Z,28.03
2018-12-26T01:53:23.865Z,28.00
2018-12-26T01:54:24.983Z,27.89
2018-12-26T01:55:26.207Z,27.86
2018-12-26T01:56:28.148Z,27.94
2018-12-26T01:57:30.367Z,27.92
2018-12-26T01:58:32.038Z,27.91
2018-12-26T01:59:33.148Z,27.87
2018-12-26T02:00:34.362Z,27.85
2018-12-26T02:01:35.472Z,27.92
2018-12-26T02:02:36.579Z,27.88
2018-12-26T02:03:37.707Z,27.83
2018-12-26T02:04:38.829Z,27.87
2018-12-26T02:06:54.239Z,27.79
2018-12-26T02:07:55.467Z,27.81
2018-12-26T02:08:56.680Z,27.81
2018-12-26T02:09:57.788Z,27.83
2018-12-26T02:10:58.945Z,27.97
2018-12-26T02:12:00.156Z,27.92
2018-12-26T02:13:01.268Z,27.89
2018-12-26T02:14:02.380Z,27.88
2018-12-26T02:15:25.152Z,27.81
2018-12-26T02:16:26.373Z,27.74
2018-12-26T02:17:27.478Z,27.82
2018-12-26T02:18:28.590Z,27.91
2018-12-26T02:19:29.705Z,27.88
2018-12-26T02:20:30.914Z,27.84
2018-12-26T02:21:32.037Z,27.83
2018-12-26T02:22:33.309Z,27.89
2018-12-26T02:23:34.456Z,27.90
2018-12-26T02:24:35.563Z,27.82
2018-12-26T02:25:36.778Z,27.89
2018-12-26T02:26:38.001Z,27.83
2018-12-26T02:27:39.112Z,27.88
2018-12-26T02:28:40.221Z,27.95
2018-12-26T02:29:41.488Z,27.88
2018-12-26T02:30:42.596Z,27.87
2018-12-26T02:31:43.817Z,27.87
2018-12-26T02:32:44.930Z,27.78
2018-12-26T02:33:46.141Z,27.87
2018-12-26T02:34:47.248Z,27.84
2018-12-26T02:35:48.357Z,27.89
2018-12-26T02:36:49.581Z,27.93
2018-12-26T02:37:50.689Z,28.01
2018-12-26T02:38:51.913Z,27.89
2018-12-26T02:39:53.023Z,27.89
2018-12-26T02:40:54.133Z,27.88
2018-12-26T02:41:55.354Z,27.87
2018-12-26T02:42:56.485Z,27.89
2018-12-26T02:43:57.589Z,27.87
2018-12-26T02:44:58.697Z,27.86
2018-12-26T02:45:59.812Z,27.89
2018-12-26T02:48:15.126Z,27.79
2018-12-26T02:49:16.235Z,27.90
2018-12-26T02:50:17.341Z,27.90
2018-12-26T02:51:18.556Z,27.90
2018-12-26T02:52:19.958Z,27.95
2018-12-26T02:53:21.045Z,27.88
2018-12-26T02:54:22.154Z,27.95
2018-12-26T02:55:23.265Z,27.91
2018-12-26T02:56:24.469Z,27.94
2018-12-26T02:57:25.606Z,27.89
2018-12-26T02:58:27.006Z,27.90
2018-12-26T02:59:28.116Z,27.83
2018-12-26T03:00:29.785Z,27.87
2018-12-26T03:01:30.895Z,27.84
2018-12-26T03:03:46.218Z,27.81
2018-12-26T03:04:47.338Z,27.80
2018-12-26T03:05:48.456Z,27.79
2018-12-26T03:06:49.562Z,27.84
2018-12-26T03:07:50.781Z,27.81
2018-12-26T03:08:51.895Z,27.83
2018-12-26T03:09:53.008Z,27.89
2018-12-26T03:10:54.114Z,27.89
2018-12-26T03:11:55.234Z,27.88
2018-12-26T03:12:56.633Z,27.89
2018-12-26T03:13:57.743Z,27.87
2018-12-26T03:14:58.854Z,27.85
2018-12-26T03:15:59.966Z,27.88
2018-12-26T03:17:01.174Z,27.86
2018-12-26T03:19:16.493Z,27.85
2018-12-26T03:20:17.613Z,27.91
2018-12-26T03:21:18.724Z,27.87
2018-12-26T03:22:19.848Z,27.84
2018-12-26T03:23:20.968Z,27.89
2018-12-26T03:24:22.079Z,27.85
2018-12-26T03:25:23.197Z,27.88
2018-12-26T03:26:24.306Z,27.79
2018-12-26T03:27:25.416Z,27.85
2018-12-26T03:29:40.925Z,27.83
2018-12-26T03:30:42.073Z,27.82
2018-12-26T03:31:43.344Z,27.78
2018-12-26T03:32:44.446Z,27.84
2018-12-26T03:33:45.841Z,27.85
2018-12-26T03:34:47.051Z,27.82
2018-12-26T03:35:48.162Z,27.87
2018-12-26T03:36:49.263Z,27.87
2018-12-26T03:37:50.474Z,27.87
2018-12-26T03:38:51.724Z,27.88
2018-12-26T03:39:52.838Z,27.88
2018-12-26T03:40:53.944Z,27.85
2018-12-26T03:41:55.151Z,27.90
2018-12-26T03:42:56.360Z,27.87
2018-12-26T03:43:57.580Z,27.80
2018-12-26T03:45:34.106Z,27.77
2018-12-26T03:46:47.773Z,27.75
2018-12-26T03:48:24.344Z,27.72
2018-12-26T03:49:25.476Z,27.71
2018-12-26T03:50:26.687Z,27.73
2018-12-26T03:51:27.798Z,27.68
2018-12-26T03:52:28.908Z,27.71
2018-12-26T03:53:30.016Z,27.78
2018-12-26T03:55:45.340Z,27.78
2018-12-26T03:56:46.565Z,27.89
2018-12-26T03:57:47.680Z,27.89
2018-12-26T04:00:31.251Z,27.97
2018-12-26T04:01:32.366Z,27.91
2018-12-26T04:02:33.650Z,27.91
2018-12-26T04:03:34.753Z,27.89
2018-12-26T04:04:35.963Z,27.92
2018-12-26T04:06:51.287Z,27.96
2018-12-26T04:07:52.391Z,28.00
2018-12-26T04:08:53.502Z,28.03
2018-12-26T04:12:11.681Z,27.90
2018-12-26T04:13:12.901Z,27.87
2018-12-26T04:14:14.129Z,27.91
2018-12-26T04:15:15.342Z,27.93
2018-12-26T04:17:30.865Z,27.96
2018-12-26T04:18:31.988Z,27.92
2018-12-26T04:21:15.461Z,27.89
2018-12-26T04:22:16.678Z,27.85
2018-12-26T04:23:17.783Z,27.79
2018-12-26T04:24:18.910Z,27.78
2018-12-26T04:25:20.016Z,27.84
2018-12-26T04:26:21.121Z,27.83
2018-12-26T04:27:22.254Z,27.80
2018-12-26T04:28:23.364Z,27.82
2018-12-26T04:29:24.470Z,27.81
2018-12-26T04:30:25.636Z,27.81
2018-12-26T04:31:26.685Z,27.85
2018-12-26T04:32:27.809Z,27.86
2018-12-26T04:33:29.516Z,27.78
2018-12-26T04:34:30.613Z,27.71
2018-12-26T04:35:31.716Z,27.76
2018-12-26T04:36:32.829Z,27.78
2018-12-26T04:38:48.349Z,27.73
2018-12-26T04:39:49.469Z,27.72
2018-12-26T04:40:50.578Z,27.75
2018-12-26T04:41:51.690Z,27.62
2018-12-26T04:42:52.816Z,27.70
2018-12-26T04:43:53.925Z,27.75
2018-12-26T04:44:55.033Z,27.79
2018-12-26T04:45:56.246Z,27.80
2018-12-26T04:46:57.355Z,27.75
2018-12-26T04:47:58.469Z,27.77
2018-12-26T04:48:59.576Z,27.77
2018-12-26T04:50:00.791Z,27.71
2018-12-26T04:51:01.908Z,27.72
2018-12-26T04:52:03.014Z,27.79
2018-12-26T04:54:18.325Z,27.69
2018-12-26T04:55:19.449Z,27.75
2018-12-26T04:56:20.569Z,27.75
2018-12-26T04:57:24.972Z,27.78
2018-12-26T04:58:24.720Z,27.74
2018-12-26T04:59:25.831Z,27.72
2018-12-26T05:00:27.041Z,27.70
2018-12-26T05:01:28.249Z,27.75
2018-12-26T05:02:29.356Z,27.75
2018-12-26T05:03:30.581Z,27.80
2018-12-26T05:04:32.148Z,27.81
2018-12-26T05:05:33.248Z,27.83
2018-12-26T05:06:34.353Z,27.83
2018-12-26T05:07:35.573Z,27.83
2018-12-26T05:08:36.710Z,27.86
2018-12-26T05:09:37.823Z,27.85
2018-12-26T05:10:38.930Z,27.84
2018-12-26T05:11:40.064Z,27.85
2018-12-26T05:12:41.176Z,27.80
2018-12-26T05:13:42.307Z,27.84
2018-12-26T05:14:43.410Z,27.84
2018-12-26T05:15:44.613Z,27.86
2018-12-26T05:16:45.720Z,27.84
2018-12-26T05:17:46.830Z,27.85
2018-12-26T05:18:48.050Z,27.87
2018-12-26T05:19:49.163Z,27.82
2018-12-26T05:20:50.272Z,27.79
2018-12-26T05:21:51.480Z,27.77
2018-12-26T05:22:52.647Z,27.81
2018-12-26T05:23:53.709Z,27.79
2018-12-26T05:25:29.682Z,27.76
2018-12-26T05:26:30.811Z,27.70
2018-12-26T05:27:34.253Z,27.72
2018-12-26T05:28:34.965Z,27.79
2018-12-26T05:30:50.280Z,27.80
2018-12-26T05:31:51.392Z,27.74
2018-12-26T05:32:52.499Z,27.75
2018-12-26T05:33:53.616Z,27.75
2018-12-26T05:34:55.025Z,27.72
2018-12-26T05:35:56.240Z,27.75
2018-12-26T05:36:57.356Z,27.70
2018-12-26T05:37:58.473Z,27.71
2018-12-26T05:38:59.576Z,27.74
2018-12-26T05:40:00.704Z,27.72
2018-12-26T05:41:01.814Z,27.75
2018-12-26T05:42:02.927Z,27.71
2018-12-26T05:43:04.035Z,27.74
2018-12-26T05:44:05.140Z,27.65
2018-12-26T05:45:06.265Z,27.69
2018-12-26T05:46:07.374Z,27.74
2018-12-26T05:47:08.483Z,27.70
2018-12-26T05:48:09.586Z,27.70
2018-12-26T05:49:10.696Z,27.73
2018-12-26T05:50:11.822Z,27.73
2018-12-26T05:51:12.935Z,27.65
2018-12-26T05:52:14.153Z,27.69
2018-12-26T05:53:15.263Z,27.78
2018-12-26T05:54:16.482Z,27.68
2018-12-26T05:56:31.785Z,27.70
2018-12-26T05:57:32.897Z,27.72
2018-12-26T05:58:34.004Z,27.70
2018-12-26T05:59:35.113Z,27.71
2018-12-26T06:00:36.459Z,27.65
2018-12-26T06:01:37.564Z,27.70
2018-12-26T06:02:38.779Z,27.72
2018-12-26T06:03:39.893Z,27.76
2018-12-26T06:04:41.003Z,27.76
2018-12-26T06:05:42.642Z,27.73
2018-12-26T06:06:43.753Z,27.70
2018-12-26T06:07:44.863Z,27.73
2018-12-26T06:08:45.972Z,27.73
2018-12-26T06:09:47.083Z,27.77
2018-12-26T06:10:48.300Z,27.80
2018-12-26T06:11:49.419Z,27.80
2018-12-26T06:12:50.633Z,27.81
2018-12-26T06:13:51.853Z,27.81
2018-12-26T06:14:53.069Z,27.77
2018-12-26T06:17:08.370Z,27.79
2018-12-26T06:18:09.486Z,27.78
2018-12-26T06:19:10.693Z,27.79
2018-12-26T06:20:11.807Z,27.85
2018-12-26T06:21:13.134Z,27.87
2018-12-26T06:22:14.243Z,27.86
2018-12-26T06:23:15.362Z,27.86
2018-12-26T06:24:16.467Z,27.85
2018-12-26T06:25:17.682Z,27.83
2018-12-26T06:27:32.993Z,27.82
2018-12-26T06:28:34.132Z,27.82
2018-12-26T06:29:35.240Z,27.85
2018-12-26T06:30:36.396Z,27.79
2018-12-26T06:32:51.712Z,27.83
2018-12-26T06:33:52.838Z,27.72
2018-12-26T06:34:54.045Z,27.72
2018-12-26T06:35:55.157Z,27.76
2018-12-26T06:36:56.760Z,27.79
2018-12-26T06:37:57.867Z,27.75
2018-12-26T06:38:58.969Z,27.78
2018-12-26T06:40:00.092Z,27.78
2018-12-26T06:41:01.295Z,27.78
2018-12-26T06:43:16.609Z,27.78
2018-12-26T06:44:17.741Z,27.75
2018-12-26T06:45:18.848Z,27.73
2018-12-26T06:46:19.959Z,27.78
2018-12-26T06:47:21.080Z,27.71
2018-12-26T06:48:22.189Z,27.73
2018-12-26T06:49:23.299Z,27.74
2018-12-26T06:50:24.405Z,27.72
2018-12-26T06:51:25.523Z,27.74
2018-12-26T06:52:26.641Z,27.75
2018-12-26T06:53:27.753Z,27.75
2018-12-26T06:54:28.860Z,27.71
2018-12-26T06:55:29.976Z,27.77
2018-12-26T06:56:31.086Z,27.75
2018-12-26T06:57:32.210Z,27.75
2018-12-26T06:58:33.316Z,27.74
2018-12-26T06:59:34.423Z,27.74
2018-12-26T07:00:35.529Z,27.73
2018-12-26T07:01:36.741Z,27.74
2018-12-26T07:02:37.982Z,27.68
2018-12-26T07:03:39.099Z,27.66
2018-12-26T07:04:40.200Z,27.65
2018-12-26T07:05:41.312Z,27.71
2018-12-26T07:06:42.420Z,27.65
2018-12-26T07:07:43.829Z,27.67
2018-12-26T07:08:44.924Z,27.65
2018-12-26T07:09:46.132Z,27.65
2018-12-26T07:10:47.346Z,27.65
2018-12-26T07:11:48.460Z,27.61
2018-12-26T07:12:49.659Z,27.62
2018-12-26T07:13:50.771Z,27.64
2018-12-26T07:14:51.876Z,27.65
2018-12-26T07:15:53.087Z,27.65
2018-12-26T07:16:54.192Z,27.67
2018-12-26T07:17:55.415Z,27.63
2018-12-26T07:18:56.519Z,27.66
2018-12-26T07:19:57.734Z,27.59
2018-12-26T07:20:58.844Z,27.63
2018-12-26T07:21:59.950Z,27.65
2018-12-26T07:24:15.369Z,27.63
2018-12-26T07:25:16.484Z,27.60
2018-12-26T07:26:17.597Z,27.58
2018-12-26T07:27:18.709Z,27.67
2018-12-26T07:28:20.104Z,27.67
2018-12-26T07:29:21.213Z,27.63
2018-12-26T07:30:22.431Z,27.50
2018-12-26T07:31:23.532Z,27.54
2018-12-26T07:32:24.643Z,27.55
2018-12-26T07:34:42.345Z,27.62
2018-12-26T07:35:42.985Z,27.60
2018-12-26T07:36:44.113Z,27.65
2018-12-26T07:37:45.217Z,27.60
2018-12-26T07:38:46.934Z,27.59
2018-12-26T07:39:48.036Z,27.59
2018-12-26T07:40:49.144Z,27.58
2018-12-26T07:41:50.257Z,27.55
2018-12-26T07:42:51.465Z,27.63
2018-12-26T07:45:48.185Z,27.65
2018-12-26T07:46:49.307Z,27.58
2018-12-26T07:47:50.420Z,27.52
2018-12-26T07:48:51.530Z,27.57
2018-12-26T07:49:52.656Z,27.53
2018-12-26T07:50:53.766Z,27.53
2018-12-26T07:51:54.880Z,27.53
2018-12-26T07:52:55.987Z,27.56
2018-12-26T07:53:57.093Z,27.61
2018-12-26T07:54:58.241Z,27.53
2018-12-26T07:55:59.354Z,27.62
2018-12-26T07:57:00.461Z,27.59
2018-12-26T07:58:01.570Z,27.64
2018-12-26T07:59:02.682Z,27.62
2018-12-26T08:00:45.260Z,27.67
2018-12-26T08:01:46.399Z,27.63
2018-12-26T08:02:47.504Z,27.63
2018-12-26T08:03:48.617Z,27.54
2018-12-26T08:04:49.727Z,27.59
2018-12-26T08:05:50.852Z,27.64
2018-12-26T08:06:51.960Z,27.64
2018-12-26T08:07:53.071Z,27.71
2018-12-26T08:08:54.178Z,27.70
2018-12-26T08:09:55.693Z,27.67
2018-12-26T08:10:56.809Z,27.67
2018-12-26T08:11:58.028Z,27.69
2018-12-26T08:12:59.235Z,27.64
2018-12-26T08:14:00.445Z,27.67
2018-12-26T08:15:10.175Z,27.65
2018-12-26T08:16:04.708Z,27.60
2018-12-26T08:17:05.827Z,27.67
2018-12-26T08:18:07.044Z,27.59
2018-12-26T08:19:08.162Z,27.62
2018-12-26T08:20:09.270Z,27.58
2018-12-26T08:21:10.501Z,27.64
2018-12-26T08:22:11.615Z,27.64
2018-12-26T08:23:12.720Z,27.70
2018-12-26T08:24:13.831Z,27.68
2018-12-26T08:25:14.941Z,27.70
2018-12-26T08:26:16.169Z,27.73
2018-12-26T08:27:17.379Z,27.75
2018-12-26T08:28:26.295Z,27.73
2018-12-26T08:29:21.513Z,27.70
2018-12-26T08:30:22.653Z,27.68
2018-12-26T08:31:23.972Z,27.69
2018-12-26T08:32:25.084Z,27.63
2018-12-26T08:33:26.193Z,27.65
2018-12-26T08:34:27.304Z,27.62
2018-12-26T08:35:28.416Z,27.62
2018-12-26T08:36:29.541Z,27.68
2018-12-26T08:37:30.651Z,27.75
2018-12-26T08:38:31.759Z,27.71
2018-12-26T08:39:32.984Z,27.72
2018-12-26T08:40:34.098Z,27.76
2018-12-26T08:41:35.316Z,27.75
2018-12-26T08:42:36.432Z,27.78
2018-12-26T08:43:37.637Z,27.70
2018-12-26T08:44:38.845Z,27.77
2018-12-26T08:45:39.958Z,27.76
2018-12-26T08:47:55.374Z,27.75
2018-12-26T08:48:56.485Z,27.70
2018-12-26T08:49:57.702Z,27.64
2018-12-26T08:50:58.846Z,27.71
2018-12-26T08:52:00.072Z,27.72
2018-12-26T08:53:01.191Z,27.67
2018-12-26T08:54:02.404Z,27.62
2018-12-26T08:55:03.716Z,27.65
2018-12-26T08:56:04.821Z,27.68
2018-12-26T08:57:05.941Z,27.66
2018-12-26T08:58:07.052Z,27.73
2018-12-26T08:59:08.266Z,27.68
2018-12-26T09:00:09.377Z,27.67
2018-12-26T09:01:10.490Z,27.64
2018-12-26T09:03:25.896Z,27.70
2018-12-26T09:04:27.020Z,27.75
2018-12-26T09:05:28.233Z,27.79
2018-12-26T09:06:29.341Z,27.75
2018-12-26T09:07:30.582Z,27.81
2018-12-26T09:08:31.696Z,27.76
2018-12-26T09:09:32.809Z,27.77
2018-12-26T09:10:33.938Z,27.72
2018-12-26T09:11:35.045Z,27.74
2018-12-26T09:13:50.380Z,27.77
2018-12-26T09:14:51.500Z,27.77
2018-12-26T09:15:52.713Z,27.78
2018-12-26T09:16:53.831Z,27.76
2018-12-26T09:17:55.053Z,27.83
2018-12-26T09:18:56.160Z,27.79
2018-12-26T09:19:57.263Z,27.84
2018-12-26T09:20:58.380Z,27.81
2018-12-26T09:21:59.624Z,27.79
2018-12-26T09:24:14.955Z,27.92
2018-12-26T09:25:16.080Z,27.86
2018-12-26T09:26:17.297Z,27.81
2018-12-26T09:27:18.525Z,27.83
2018-12-26T09:28:19.659Z,27.89
2018-12-26T09:29:20.779Z,27.86
2018-12-26T09:30:22.003Z,27.91
2018-12-26T09:31:23.239Z,27.86
2018-12-26T09:32:24.464Z,27.92
2018-12-26T09:33:25.696Z,27.93
2018-12-26T09:34:26.923Z,27.90
2018-12-26T09:35:28.038Z,27.87
2018-12-26T09:36:29.162Z,27.87
2018-12-26T09:37:30.285Z,27.92
2018-12-26T09:39:45.820Z,27.86
2018-12-26T09:40:47.082Z,27.83
2018-12-26T09:41:48.204Z,27.87
2018-12-26T09:42:49.441Z,27.84
2018-12-26T09:43:50.715Z,27.85
2018-12-26T09:44:54.579Z,27.87
2018-12-26T09:45:54.986Z,27.87
2018-12-26T09:46:56.121Z,27.87
2018-12-26T09:47:57.234Z,27.87
2018-12-26T09:48:58.354Z,27.88
2018-12-26T09:49:59.467Z,27.92
2018-12-26T09:51:00.576Z,27.95
2018-12-26T09:52:01.698Z,27.88
2018-12-26T09:53:02.898Z,27.85
2018-12-26T09:54:04.026Z,27.79
2018-12-26T09:55:05.133Z,27.80
2018-12-26T09:56:06.240Z,27.71
2018-12-26T09:57:07.349Z,27.64
2018-12-26T09:58:08.465Z,27.70
2018-12-26T09:59:09.856Z,27.66
2018-12-26T10:00:11.064Z,27.62
2018-12-26T10:01:12.174Z,27.66
2018-12-26T10:02:13.278Z,27.67
2018-12-26T10:03:14.391Z,27.64
2018-12-26T10:04:15.644Z,27.58
2018-12-26T10:05:16.756Z,27.60
2018-12-26T10:06:17.976Z,27.59
2018-12-26T10:07:19.184Z,27.63
2018-12-26T10:08:20.405Z,27.61
2018-12-26T10:09:21.616Z,27.65
2018-12-26T10:10:22.726Z,27.57
2018-12-26T10:11:23.843Z,27.51
2018-12-26T10:12:24.962Z,27.52
2018-12-26T10:13:26.069Z,27.53
2018-12-26T10:14:27.491Z,27.51
2018-12-26T10:15:28.595Z,27.52
2018-12-26T10:16:29.702Z,27.49
2018-12-26T10:17:30.909Z,27.55
2018-12-26T10:18:32.091Z,27.49
2018-12-26T10:19:33.362Z,27.47
2018-12-26T10:20:34.588Z,27.51
2018-12-26T10:21:35.702Z,27.53
2018-12-26T10:22:36.825Z,27.51
2018-12-26T10:23:37.943Z,27.57
2018-12-26T10:24:39.273Z,27.50
2018-12-26T10:25:40.384Z,27.58
2018-12-26T10:26:41.593Z,27.54
2018-12-26T10:27:42.699Z,27.56
2018-12-26T10:28:43.910Z,27.52
2018-12-26T10:29:45.035Z,27.55
2018-12-26T10:30:46.249Z,27.56
2018-12-26T10:31:47.461Z,27.51
2018-12-26T10:32:48.586Z,27.56
2018-12-26T10:33:49.797Z,27.56
2018-12-26T10:34:50.921Z,27.59
2018-12-26T10:35:52.030Z,27.53
2018-12-26T10:36:53.142Z,27.57
2018-12-26T10:37:54.356Z,27.54
2018-12-26T10:38:55.565Z,27.59
2018-12-26T10:39:56.691Z,27.63
2018-12-26T10:40:57.800Z,27.49
2018-12-26T10:41:58.918Z,27.58
2018-12-26T10:43:00.021Z,27.58
2018-12-26T10:44:01.237Z,27.60
2018-12-26T10:45:02.978Z,27.59
2018-12-26T10:46:04.203Z,27.66
2018-12-26T10:47:05.312Z,27.66
2018-12-26T10:48:06.533Z,27.64
2018-12-26T10:49:07.643Z,27.59
2018-12-26T10:51:23.057Z,27.66
2018-12-26T10:52:24.173Z,27.63
2018-12-26T10:53:25.280Z,27.63
2018-12-26T10:54:26.494Z,27.61
2018-12-26T10:56:41.809Z,28.02
2018-12-26T10:57:42.929Z,28.20
2018-12-26T10:58:44.040Z,28.16
2018-12-26T10:59:45.153Z,27.90
2018-12-26T11:00:46.548Z,27.79
2018-12-26T11:01:47.660Z,27.73
2018-12-26T11:02:48.768Z,27.76
2018-12-26T11:03:49.882Z,27.66
2018-12-26T11:04:50.993Z,27.62
2018-12-26T11:05:52.233Z,27.64
2018-12-26T11:06:53.437Z,27.58
2018-12-26T11:07:54.580Z,27.46
2018-12-26T11:08:55.761Z,27.47
2018-12-26T11:09:56.877Z,27.57
2018-12-26T11:10:57.998Z,27.63
2018-12-26T11:11:59.134Z,27.64
2018-12-26T11:13:00.246Z,27.61
2018-12-26T11:14:01.354Z,27.62
2018-12-26T11:15:37.164Z,27.53
2018-12-26T11:16:38.412Z,27.49
2018-12-26T11:17:39.531Z,27.41
2018-12-26T11:18:40.945Z,27.46
2018-12-26T11:21:24.524Z,27.42
2018-12-26T11:23:46.562Z,27.21
2018-12-26T11:24:47.669Z,27.17
2018-12-26T11:25:48.901Z,27.16
2018-12-26T11:26:50.415Z,27.11
2018-12-26T11:27:52.932Z,27.06
2018-12-26T11:28:54.681Z,27.11
2018-12-26T11:29:55.793Z,27.17
2018-12-26T11:30:56.906Z,27.16
2018-12-26T11:31:58.031Z,27.16
2018-12-26T11:33:01.276Z,27.15
2018-12-26T11:34:02.296Z,27.12
2018-12-26T11:35:25.102Z,27.13
2018-12-26T11:36:26.229Z,27.10
2018-12-26T11:37:27.489Z,27.12
2018-12-26T11:38:28.613Z,27.15
2018-12-26T11:39:29.830Z,27.07
2018-12-26T11:40:31.064Z,27.11
2018-12-26T11:41:32.290Z,27.14
2018-12-26T11:42:33.824Z,27.14
2018-12-26T11:43:35.046Z,27.19
2018-12-26T11:44:56.022Z,27.17
2018-12-26T11:45:57.280Z,27.23
2018-12-26T11:46:58.499Z,27.25
2018-12-26T11:47:59.739Z,27.30
2018-12-26T11:49:01.326Z,27.33
2018-12-26T11:50:24.394Z,27.38
2018-12-26T11:51:25.518Z,27.51
2018-12-26T11:52:26.631Z,27.44
2018-12-26T11:53:27.865Z,27.56
2018-12-26T11:54:28.981Z,27.61
2018-12-26T11:55:30.093Z,27.57
2018-12-26T11:56:31.205Z,27.61
2018-12-26T11:57:32.310Z,27.77
2018-12-26T11:58:33.533Z,27.79
2018-12-26T11:59:34.746Z,27.68
2018-12-26T12:00:35.848Z,27.73
2018-12-26T12:01:36.957Z,27.70
2018-12-26T12:02:38.067Z,27.83
2018-12-26T12:04:59.383Z,27.87
2018-12-26T12:06:00.629Z,27.83
2018-12-26T12:07:01.850Z,27.87
2018-12-26T12:08:02.969Z,27.84
2018-12-26T12:09:25.661Z,27.81
2018-12-26T12:10:26.900Z,27.83
2018-12-26T12:11:28.130Z,27.85
2018-12-26T12:12:29.357Z,27.85
2018-12-26T12:13:30.589Z,27.81
2018-12-26T12:14:31.819Z,27.82
2018-12-26T12:15:33.054Z,27.85
2018-12-26T12:16:34.279Z,27.87
2018-12-26T12:17:35.493Z,27.89
2018-12-26T12:18:36.807Z,27.87
2018-12-26T12:19:38.053Z,27.85
2018-12-26T12:20:39.297Z,27.85
2018-12-26T12:21:40.516Z,27.86
2018-12-26T12:22:41.748Z,27.81
2018-12-26T12:23:42.977Z,27.86
2018-12-26T12:24:44.216Z,27.78
2018-12-26T12:25:45.536Z,27.84
2018-12-26T12:26:46.765Z,27.83
2018-12-26T12:28:07.738Z,27.76
2018-12-26T12:29:08.955Z,27.81
2018-12-26T12:30:10.182Z,27.83
2018-12-26T12:31:11.293Z,27.81
2018-12-26T12:32:12.588Z,27.85
2018-12-26T12:33:13.699Z,27.79
2018-12-26T12:34:14.809Z,27.80
2018-12-26T12:36:30.323Z,27.90
2018-12-26T12:37:31.428Z,27.82
2018-12-26T12:39:07.120Z,27.83
2018-12-26T12:40:43.711Z,27.86
2018-12-26T12:41:44.942Z,27.77
2018-12-26T12:42:46.045Z,27.72
2018-12-26T12:43:47.163Z,27.73
2018-12-26T12:45:29.693Z,27.75
2018-12-26T12:46:30.816Z,27.74
2018-12-26T12:47:31.927Z,27.71
2018-12-26T12:48:33.032Z,27.66
2018-12-26T12:49:34.141Z,27.64
2018-12-26T12:50:35.260Z,27.69
2018-12-26T12:51:36.369Z,27.75
2018-12-26T12:52:37.487Z,27.72
2018-12-26T12:53:38.600Z,27.70
2018-12-26T12:54:39.715Z,27.70
2018-12-26T12:55:42.050Z,27.71
2018-12-26T12:56:43.969Z,27.70
2018-12-26T12:57:45.188Z,27.64
2018-12-26T12:58:46.406Z,27.65
2018-12-26T12:59:47.654Z,27.68
2018-12-26T13:00:49.161Z,27.64
2018-12-26T13:01:50.398Z,27.55
2018-12-26T13:03:00.081Z,27.59
2018-12-26T13:03:54.641Z,27.61
2018-12-26T13:04:55.748Z,27.59
2018-12-26T13:05:56.868Z,27.63
2018-12-26T13:06:58.116Z,27.63
2018-12-26T13:07:59.212Z,27.70
2018-12-26T13:09:00.323Z,27.68
2018-12-26T13:10:01.448Z,27.75
2018-12-26T13:12:16.871Z,27.68
2018-12-26T13:13:17.976Z,27.70
2018-12-26T13:14:19.184Z,27.62
2018-12-26T13:15:20.289Z,27.70
2018-12-26T13:16:21.499Z,27.71
2018-12-26T13:17:22.612Z,27.62
2018-12-26T13:18:23.720Z,27.67
2018-12-26T13:19:24.920Z,27.67
2018-12-26T13:20:26.040Z,27.66
2018-12-26T13:21:27.148Z,27.65
2018-12-26T13:22:28.253Z,27.62
2018-12-26T13:23:29.363Z,27.65
2018-12-26T13:24:30.468Z,27.67
2018-12-26T13:25:31.576Z,27.66
2018-12-26T13:26:32.703Z,27.70
2018-12-26T13:27:33.925Z,27.73
2018-12-26T13:28:35.127Z,27.71
2018-12-26T13:29:36.238Z,27.66
2018-12-26T13:30:37.340Z,27.68
2018-12-26T13:31:38.529Z,27.70
2018-12-26T13:32:39.771Z,27.71
2018-12-26T13:33:40.876Z,27.71
2018-12-26T13:34:42.085Z,27.74
2018-12-26T13:35:43.192Z,27.72
2018-12-26T13:36:44.316Z,27.69
2018-12-26T13:37:45.421Z,27.62
2018-12-26T13:38:46.529Z,27.62
2018-12-26T13:39:47.745Z,27.67
2018-12-26T13:40:48.961Z,27.64
2018-12-26T13:41:50.082Z,27.70
2018-12-26T13:42:51.188Z,27.65
2018-12-26T13:43:52.300Z,27.66
2018-12-26T13:44:53.416Z,27.64
2018-12-26T13:45:54.641Z,27.76
2018-12-26T13:46:56.137Z,27.70
2018-12-26T13:47:57.244Z,27.76
2018-12-26T13:48:58.351Z,27.67
2018-12-26T13:49:59.459Z,27.71
2018-12-26T13:51:00.839Z,27.75
2018-12-26T13:53:16.156Z,27.80
2018-12-26T13:54:17.273Z,27.79
2018-12-26T13:55:18.379Z,27.76
2018-12-26T13:56:19.491Z,27.75
2018-12-26T13:57:20.893Z,27.76
2018-12-26T13:58:22.004Z,27.79
2018-12-26T13:59:23.118Z,27.81
2018-12-26T14:00:24.229Z,27.86
2018-12-26T14:01:25.331Z,27.86
2018-12-26T14:02:26.559Z,27.84
2018-12-26T14:03:27.672Z,27.82
2018-12-26T14:04:28.780Z,27.86
2018-12-26T14:05:29.893Z,27.89
2018-12-26T14:06:31.001Z,27.81
2018-12-26T14:07:32.222Z,27.84
2018-12-26T14:08:33.430Z,27.87
2018-12-26T14:09:34.548Z,27.91
2018-12-26T14:10:35.658Z,27.77
2018-12-26T14:11:36.774Z,27.81
2018-12-26T14:12:38.029Z,27.84